PWSweather.com
Personal Weather Stations
Station Observations
WATERF01
WaterfordIE

WaterfordIE

Lat: 52.2412507, Lon: -7.1414691

Elevation: 65

Station Type: Davis Vantage Vue

Latest ConditionsUpdated 5:10:03 AM GMT Friday, Jun 23, 2017
Currently Today's Max Today's Min Today's Average
Temperature 59.1°F15.1°C 59.1°F15.1°C 58.4°F14.7°C 58.8°F14.9°C
Dew Point 53.9°F12.2°C 53.9°F12.2°C 52.8°F11.6°C 53.3°F11.8°C
Winds 8.1 mph W13.0 kmh W 13.8 mph W22.2 kmh W - 7.8 mph 12.6 kmh
Wind Gusts 13.8 mph22.2 kmh 21.9 mph35.2 kmh - -
Humidity 83% 83% 81% 82%
Pressure 29.89 in1012.2 mb 29.93 in1013.5 mb 29.89 in1012.2 mb -
Hour Temp Dew Point Humidity Winds Wind Gusts Pressure Precip Precip Rate Daily Precip Total
05:10 AM 59.1°F15.1°C 53.9°F12.2°C 83% 8.1 mph W13.0 kmh W 13.8 mph22.2 kmh 29.89 in1012.2 mb - 0.00 in0.0 mm 0.00 in0.0 mm
05:00 AM 59.1°F15.1°C 53.9°F12.2°C 83% 6.9 mph WSW11.1 kmh WSW 13.8 mph22.2 kmh 29.89 in1012.2 mb - 0.00 in0.0 mm 0.00 in0.0 mm
04:50 AM 59.0°F15.0°C 53.9°F12.2°C 83% 9.2 mph W14.8 kmh W 13.8 mph22.2 kmh 29.89 in1012.2 mb - 0.00 in0.0 mm 0.00 in0.0 mm
04:40 AM 59.0°F15.0°C 53.8°F12.1°C 83% 4.6 mph W7.4 kmh W 8.1 mph13.0 kmh 29.89 in1012.2 mb - 0.00 in0.0 mm 0.00 in0.0 mm
04:30 AM 59.0°F15.0°C 53.8°F12.1°C 83% 5.8 mph WSW9.3 kmh WSW 8.1 mph13.0 kmh 29.89 in1012.2 mb - 0.00 in0.0 mm 0.00 in0.0 mm
04:20 AM 58.9°F14.9°C 53.4°F11.9°C 82% 5.8 mph WNW9.3 kmh WNW 9.2 mph14.8 kmh 29.90 in1012.5 mb - 0.00 in0.0 mm 0.00 in0.0 mm
04:10 AM 58.9°F14.9°C 53.4°F11.9°C 82% 3.5 mph WSW5.6 kmh WSW 5.8 mph9.3 kmh 29.89 in1012.2 mb - 0.00 in0.0 mm 0.00 in0.0 mm
04:00 AM 58.9°F14.9°C 53.4°F11.9°C 82% 8.1 mph WSW13.0 kmh WSW 13.8 mph22.2 kmh 29.89 in1012.2 mb - 0.00 in0.0 mm 0.00 in0.0 mm
03:50 AM 58.9°F14.9°C 53.4°F11.9°C 82% 8.1 mph W13.0 kmh W 13.8 mph22.2 kmh 29.89 in1012.2 mb - 0.00 in0.0 mm 0.00 in0.0 mm
03:40 AM 58.9°F14.9°C 53.4°F11.9°C 82% 8.1 mph NW13.0 kmh NW 12.7 mph20.4 kmh 29.89 in1012.2 mb - 0.00 in0.0 mm 0.00 in0.0 mm
03:30 AM 58.9°F14.9°C 53.4°F11.9°C 82% 8.1 mph WSW13.0 kmh WSW 13.8 mph22.2 kmh 29.89 in1012.2 mb - 0.00 in0.0 mm 0.00 in0.0 mm
03:20 AM 58.9°F14.9°C 53.4°F11.9°C 82% 8.1 mph W13.0 kmh W 15.0 mph24.1 kmh 29.89 in1012.2 mb - 0.00 in0.0 mm 0.00 in0.0 mm
03:10 AM 58.9°F14.9°C 53.1°F11.7°C 81% 9.2 mph WSW14.8 kmh WSW 15.0 mph24.1 kmh 29.89 in1012.2 mb - 0.00 in0.0 mm 0.00 in0.0 mm
03:00 AM 58.8°F14.9°C 53.0°F11.7°C 81% 4.6 mph W7.4 kmh W 11.5 mph18.5 kmh 29.89 in1012.2 mb - 0.00 in0.0 mm 0.00 in0.0 mm
02:50 AM 58.8°F14.9°C 53.0°F11.7°C 81% 1.2 mph S1.9 kmh S 4.6 mph7.4 kmh 29.90 in1012.5 mb - 0.00 in0.0 mm 0.00 in0.0 mm
02:40 AM 58.8°F14.9°C 53.0°F11.7°C 81% 3.5 mph SW5.6 kmh SW 8.1 mph13.0 kmh 29.91 in1012.9 mb - 0.00 in0.0 mm 0.00 in0.0 mm
02:30 AM 58.8°F14.9°C 53.0°F11.7°C 81% 3.5 mph NNW5.6 kmh NNW 8.1 mph13.0 kmh 29.92 in1013.2 mb - 0.00 in0.0 mm 0.00 in0.0 mm
02:20 AM 58.7°F14.8°C 52.9°F11.6°C 81% 6.9 mph W11.1 kmh W 13.8 mph22.2 kmh 29.92 in1013.2 mb - 0.00 in0.0 mm 0.00 in0.0 mm
02:10 AM 58.7°F14.8°C 52.9°F11.6°C 81% 8.1 mph NW13.0 kmh NW 16.1 mph25.9 kmh 29.91 in1012.9 mb - 0.00 in0.0 mm 0.00 in0.0 mm
02:00 AM 58.7°F14.8°C 52.9°F11.6°C 81% 9.2 mph W14.8 kmh W 13.8 mph22.2 kmh 29.91 in1012.9 mb - 0.00 in0.0 mm 0.00 in0.0 mm
01:50 AM 58.7°F14.8°C 52.9°F11.6°C 81% 8.1 mph W13.0 kmh W 13.8 mph22.2 kmh 29.91 in1012.9 mb - 0.00 in0.0 mm 0.00 in0.0 mm
01:40 AM 58.7°F14.8°C 52.9°F11.6°C 81% 12.7 mph W20.4 kmh W 19.6 mph31.5 kmh 29.91 in1012.9 mb - 0.00 in0.0 mm 0.00 in0.0 mm
01:30 AM 58.7°F14.8°C 53.2°F11.8°C 82% 13.8 mph W22.2 kmh W 21.9 mph35.2 kmh 29.91 in1012.9 mb - 0.00 in0.0 mm 0.00 in0.0 mm
01:20 AM 58.7°F14.8°C 53.2°F11.8°C 82% 12.7 mph WSW20.4 kmh WSW 18.4 mph29.6 kmh 29.91 in1012.9 mb - 0.00 in0.0 mm 0.00 in0.0 mm
01:10 AM 58.7°F14.8°C 52.9°F11.6°C 81% 9.2 mph WSW14.8 kmh WSW 15.0 mph24.1 kmh 29.91 in1012.9 mb - 0.00 in0.0 mm 0.00 in0.0 mm
01:00 AM 58.6°F14.8°C 52.8°F11.6°C 81% 10.4 mph W16.7 kmh W 15.0 mph24.1 kmh 29.92 in1013.2 mb - 0.00 in0.0 mm 0.00 in0.0 mm
12:50 AM 58.6°F14.8°C 53.1°F11.7°C 82% 9.2 mph W14.8 kmh W 18.4 mph29.6 kmh 29.92 in1013.2 mb - 0.00 in0.0 mm 0.00 in0.0 mm
12:40 AM 58.5°F14.7°C 53.4°F11.9°C 83% 9.2 mph W14.8 kmh W 13.8 mph22.2 kmh 29.92 in1013.2 mb - 0.00 in0.0 mm 0.00 in0.0 mm
12:30 AM 58.5°F14.7°C 53.4°F11.9°C 83% 9.2 mph W14.8 kmh W 16.1 mph25.9 kmh 29.92 in1013.2 mb - 0.00 in0.0 mm 0.00 in0.0 mm
12:20 AM 58.5°F14.7°C 53.4°F11.9°C 83% 6.9 mph W11.1 kmh W 9.2 mph14.8 kmh 29.93 in1013.5 mb - 0.00 in0.0 mm 0.00 in0.0 mm
12:10 AM 58.5°F14.7°C 53.4°F11.9°C 83% 9.2 mph WSW14.8 kmh WSW 13.8 mph22.2 kmh 29.93 in1013.5 mb - 0.00 in0.0 mm 0.00 in0.0 mm
12:00 AM 58.4°F14.7°C 52.9°F11.6°C 82% 6.9 mph WSW11.1 kmh WSW 13.8 mph22.2 kmh 29.93 in1013.5 mb - 0.00 in0.0 mm 0.00 in0.0 mm